New Boston, Texas
Current Conditions -  °F | °C
As of 10:53 AM on Saturday 20 Dec 2014 (Local Time) from KTXK Reporting Station
Haze Haze  
Wind Chill: 42°   Ceiling: 3800
Heat Index: 44°   Visibility: 6mi
Dew Point: 40°   Wind: 5mph
Humidity: 85%   Direction: 50°NE
Pressure: 30.27"   Gusts: NA
Location:  33.46°N, 94.42°W
Report Text: KTXK 201653Z AUTO 05004KT 6SM BR FEW009 FEW017 OVC038 07/04 A3027 RMK AO2 SLP249 T00670044
Loading
Personal Weather Stations






























Interactive Weather Map New forecast layout! Learn more

10-Day Weather Forecast

Advertisements
Track Severe Weather on mobile